Tiempo atmosférico en la estación meteorológica de Alfaro, La Rioja (285 m.)

Fecha
DESCASC
Temp. máxima en grados centígrados (hora)
DESCASC
Temp. mínima en grados centígrados (hora)
DESCASC
Temp. media en grados centígrados
DESCASC
Racha de viento máxima en m/sg (hora)
DESCASC
Velocidad máxima media en intervalos de 10 minutos(hora)
DESCASC
Precipitaciones diarias en mm
DESCASC
Precipitaciones de 00:00 a 06:00 en mm
DESCASC
Precipitaciones de 06:00 a 12:00 en mm
DESCASC
Precipitaciones de 12:00 a 18:00 en mm
DESCASC
Precipitaciones de 18:00 a 24:00 en mm
DESCASC
21-08-2017 34.4 (17:30) 9.7 (07:40) 22.1 7.5 (18:00) 5.28 (19:10) 0 0 0 0 0
20-08-2017 30.1 (17:20) 13.8 (07:20) 22 11.11 (15:20) 6.67 (11:20) 0 0 0 0 0
19-08-2017 28.6 (15:50) 16.9 (06:00) 22.8 11.39 (20:00) 6.67 (19:50) 0 0 0 0 0
18-08-2017 29.5 (15:40) 16.9 (04:50) 23.2 13.89 (17:50) 8.33 (13:10) 0 0 0 0 0
17-08-2017 34 (18:40) 12.3 (00:00) 23.2 6.39 (20:30) 3.06 (01:50) 0 0 0 0 0
16-08-2017 31.4 (16:50) 17.1 (00:00) 24.3 9.72 (18:50) 5.56 (19:10) 0 0 0 0 0
15-08-2017 31.6 (18:10) 17.1 (00:00) 24.4 9.17 (22:00) 5.83 (10:40) 0 0 0 0 0
14-08-2017 34.5 (17:10) 15.3 (05:10) 24.9 11.94 (16:30) 8.61 (16:20) 0 0 0 0 0
13-08-2017 32.2 (18:50) 14.1 (00:00) 23.2 6.39 (09:10) 3.61 (00:20) 0 0 0 0 0
12-08-2017 30.1 (17:10) 10.1 (00:00) 20.1 8.89 (19:10) 5.28 (19:10) 0 0 0 0 0
11-08-2017 24.6 (16:40) 10.7 (00:00) 17.7 12.22 (12:10) 6.67 (14:10) 0 0 0 0 0
10-08-2017 22.8 (15:50) 13 (00:00) 17.9 14.44 (18:00) 8.89 (17:50) 0 0 0 0 0
09-08-2017 21.3 (14:10) 11.7 (00:00) 16.5 14.72 (19:10) 8.89 (18:20) 0 0 0 0 0
08-08-2017 24.8 (14:40) 15.6 (00:00) 20.2 13.33 (02:50) 7.78 (02:50) 0 0 0 0 0
07-08-2017 32.8 (17:30) 16 (00:00) 24.4 12.22 (21:40) 7.5 (22:10) 0 0 0 0 0
06-08-2017 27.5 (18:00) 16.2 (00:00) 21.9 12.22 (00:10) 8.06 (00:10) 5.6 5.6 0 0 0
05-08-2017 30.8 (14:50) 19.3 (00:00) 25 12.78 (18:00) 7.78 (19:20) 0 0 0 0 0
04-08-2017 34.2 (16:50) 19.8 (00:00) 27 8.89 (11:50) 5.28 (11:50) 0 0 0 0 0
03-08-2017 36.4 (17:10) 20.1 (00:00) 28.3 9.72 (22:30) 5.28 (22:10) 0 0 0 0 0
02-08-2017 35 (16:50) 16.5 (00:00) 25.8 12.5 (20:10) 8.33 (20:30) 0 0 0 0 0
01-08-2017 30 (18:30) 17.9 (00:00) 23.9 8.89 (01:00) 5.28 (01:10) 0 0 0 0 0
31-07-2017 34 (17:20) 16.6 (00:00) 25.3 12.5 (21:30) 6.67 (21:00) 0 0 0 0 0
30-07-2017 34.8 (16:40) 20.4 (00:00) 27.6 11.67 (20:10) 6.94 (20:30) 0 0 0 0 0
29-07-2017 35.3 (17:00) 15.2 (00:00) 25.2 6.94 (00:10) 3.89 (02:50) 0 0 0 0 0
28-07-2017 33.6 (18:20) 17.6 (00:00) 25.6 8.61 (20:10) 5 (00:50) 0 0 0 0 0
27-07-2017 33.5 (17:00) 12.6 (00:00) 23.1 8.89 (22:10) 5 (22:50) 0 0 0 0 0
26-07-2017 30.4 (16:10) 14.3 (00:00) 22.3 10 (18:40) 6.11 (11:50) 0 0 0 0 0
25-07-2017 23.8 (15:20) 16.7 (00:00) 20.3 13.33 (15:00) 8.06 (09:30) 0 0 0 0 0
24-07-2017 27.1 (16:50) 15.8 (00:00) 21.5 13.06 (17:30) 8.06 (17:30) 0 0 0 0 0
23-07-2017 29.6 (16:00) 15.5 (00:00) 22.6 10.83 (20:20) 5.83 (20:00) 0 0 0 0 0

Gráficas

Temp. máximas Temp. mínimas Temp. medias Precipitaciones Rachas de viento máximas Velocidades máximas media en intervalos de 10 minutos

Datos horarios

Fecha y hora oficial Temperatura (ºC) Velocidad del viento (km/h) Dirección del viento Racha (km/h) Dirección de racha Precipitación (mm) Presión (hPa) Tendencia (hPa) Humedad (%)
2017-08-21 23:00:00 20.7 6 Sudoeste 8 Nordeste 0 -- -- 48
2017-08-21 22:00:00 24.2 7 Sudoeste 13 Sudeste 0 -- -- 46
2017-08-21 21:00:00 29 9 Sur 22 Sudeste 0 -- -- 32
2017-08-21 20:00:00 32.5 11 Sudeste 27 Sudeste 0 -- -- 27
2017-08-21 19:00:00 33.7 14 Sudeste 26 Sudeste 0 -- -- 26
2017-08-21 18:00:00 34.2 15 Sudeste 27 Sur 0 -- -- 21
2017-08-21 17:00:00 34.1 13 Sur 26 Sudeste 0 -- -- 24
2017-08-21 16:00:00 33.6 14 Sudeste 27 Sudeste 0 -- -- 24
2017-08-21 15:00:00 32.4 14 Sudeste 22 Sur 0 -- -- 29
2017-08-21 14:00:00 30.2 10 Sudeste 25 Sudeste 0 -- -- 32
2017-08-21 13:00:00 27.8 10 Sudeste 19 Este 0 -- -- 40
2017-08-21 12:00:00 25.3 8 Sudeste 16 Sudeste 0 -- -- 42
2017-08-21 11:00:00 22.4 4 Este 9 Sudeste 0 -- -- 52
2017-08-21 10:00:00 19.4 0 Calma 5 Nordeste 0 -- -- 57
2017-08-21 09:00:00 15.2 0 Calma 3 Este 0 -- -- 66
2017-08-21 08:00:00 10.4 4 Sur 6 Sur 0 -- -- 82
2017-08-21 07:00:00 9.8 4 Sudoeste 7 Sur 0 -- -- 78
2017-08-21 06:00:00 10.7 2 Sudoeste 8 Sur 0 -- -- 77
2017-08-21 05:00:00 11.6 2 Noroeste 7 Sur 0 -- -- 74
2017-08-21 04:00:00 12.5 8 Sur 10 Sur 0 -- -- 70
2017-08-21 03:00:00 14.3 4 Sur 10 Noroeste 0 -- -- 58
2017-08-21 02:00:00 16.9 5 Noroeste 15 Noroeste 0 -- -- 47
2017-08-21 01:00:00 18.6 11 Noroeste 20 Noroeste 0 -- -- 46
2017-08-21 00:00:00 19.2 2 Oeste 18 Norte 0 -- -- 48
2017-08-20 23:00:00 21 13 Norte 22 Noroeste 0 -- -- 43
2017-08-20 22:00:00 21.9 12 Noroeste 24 Norte 0 -- -- 46
2017-08-20 21:00:00 23.6 15 Norte 30 Norte 0 -- -- 41
2017-08-20 20:00:00 26.5 16 Norte 29 Norte 0 -- -- 32
2017-08-20 19:00:00 28.3 16 Norte 29 Norte 0 -- -- 28
2017-08-20 18:00:00 29.1 16 Norte 32 Noroeste 0 -- -- 27
2017-08-20 17:00:00 30 19 Norte 35 Noroeste 0 -- -- 23
2017-08-20 16:00:00 29.3 18 Noroeste 40 Noroeste 0 -- -- 22
2017-08-20 15:00:00 28.8 18 Noroeste 36 Noroeste 0 -- -- 22
2017-08-20 14:00:00 27 21 Noroeste 37 Noroeste 0 -- -- 27
2017-08-20 13:00:00 24.6 22 Norte 35 Norte 0 -- -- 26
2017-08-20 12:00:00 22.8 19 Noroeste 35 Noroeste 0 -- -- 37
2017-08-20 11:00:00 20.7 22 Noroeste 35 Noroeste 0 -- -- 47
2017-08-20 10:00:00 18.8 19 Noroeste 32 Noroeste 0 -- -- 57
2017-08-20 09:00:00 16.6 17 Noroeste 32 Noroeste 0 -- -- 66
2017-08-20 08:00:00 14.3 17 Noroeste 28 Norte 0 -- -- 76
2017-08-20 07:00:00 14 15 Noroeste 27 Noroeste 0 -- -- 76
2017-08-20 06:00:00 14.1 16 Noroeste 32 Noroeste 0 -- -- 77
2017-08-20 05:00:00 14.9 15 Noroeste 30 Noroeste 0 -- -- 72
2017-08-20 04:00:00 15.4 18 Noroeste 33 Noroeste 0 -- -- 67
2017-08-20 03:00:00 15.8 16 Noroeste 39 Noroeste 0 -- -- 67
2017-08-20 02:00:00 16.2 24 Noroeste 39 Noroeste 0 -- -- 63
2017-08-20 01:00:00 17 20 Noroeste 32 Norte 0 -- -- 57
2017-08-20 00:00:00 18.2 16 Noroeste 36 Noroeste 0 -- -- 54
2017-08-19 23:00:00 18.6 18 Noroeste 30 Noroeste 0 -- -- 57
2017-08-19 22:00:00 19.8 13 Noroeste 37 Noroeste 0 -- -- 55
2017-08-19 21:00:00 21.1 16 Norte 39 Norte 0 -- -- 49
2017-08-19 20:00:00 23.1 22 Norte 41 Norte 0 -- -- 46
2017-08-19 19:00:00 25.3 21 Norte 37 Norte 0 -- -- 41
2017-08-19 18:00:00 26.4 21 Norte 36 Norte 0 -- -- 39
2017-08-19 17:00:00 27.2 20 Norte 33 Noroeste 0 -- -- 38
2017-08-19 16:00:00 28.5 19 Noroeste 37 Norte 0 -- -- 34
2017-08-19 15:00:00 27.2 19 Noroeste 31 Norte 0 -- -- 37
2017-08-19 14:00:00 26 20 Noroeste 33 Noroeste 0 -- -- 40
2017-08-19 13:00:00 24.8 18 Noroeste 39 Norte 0 -- -- 44
2017-08-19 12:00:00 23.9 21 Norte 35 Noroeste 0 -- -- 47
2017-08-19 11:00:00 22.7 22 Noroeste 40 Noroeste 0 -- -- 52
2017-08-19 10:00:00 20.8 17 Norte 31 Norte 0 -- -- 66
2017-08-19 09:00:00 19.1 12 Noroeste 22 Noroeste 0 -- -- 74
2017-08-19 08:00:00 16.9 9 Noroeste 19 Noroeste 0 -- -- 81
2017-08-19 07:00:00 16.9 10 Noroeste 16 Noroeste 0 -- -- 81
2017-08-19 06:00:00 16.9 6 Noroeste 20 Noroeste 0 -- -- 80
2017-08-19 05:00:00 17.5 11 Noroeste 23 Noroeste 0 -- -- 77
2017-08-19 04:00:00 17.2 11 Noroeste 18 Noroeste 0 -- -- 80
2017-08-19 03:00:00 17.5 7 Noroeste 13 Noroeste 0 -- -- 77
2017-08-19 02:00:00 18.5 5 Noroeste 17 Noroeste 0 -- -- 70
2017-08-19 01:00:00 19.4 10 Noroeste 28 Noroeste 0 -- -- 67
2017-08-19 00:00:00 19.8 12 Noroeste 31 Noroeste 0 -- -- 67
2017-08-18 23:00:00 20.5 14 Noroeste 25 Noroeste 0 -- -- 64
2017-08-18 22:00:00 21.2 12 Noroeste 23 Noroeste 0 -- -- 63
2017-08-18 21:00:00 21.9 12 Norte 32 Norte 0 -- -- 66
2017-08-18 20:00:00 23.7 19 Norte 44 Norte 0 -- -- 60
2017-08-18 19:00:00 25.1 27 Norte 43 Norte 0 -- -- 57
2017-08-18 18:00:00 27 28 Norte 50 Norte 0 -- -- 48
2017-08-18 17:00:00 27.4 22 Norte 43 Norte 0 -- -- 53
2017-08-18 16:00:00 29.4 26 Noroeste 42 Noroeste 0 -- -- 44
2017-08-18 15:00:00 28.2 24 Noroeste 44 Noroeste 0 -- -- 47
2017-08-18 14:00:00 27.8 27 Noroeste 49 Noroeste 0 -- -- 49
2017-08-18 13:00:00 27.4 29 Noroeste 44 Norte 0 -- -- 51
2017-08-18 12:00:00 26.1 21 Noroeste 34 Noroeste 0 -- -- 55
2017-08-18 11:00:00 24.2 19 Noroeste 33 Noroeste 0 -- -- 61
2017-08-18 10:00:00 22.7 14 Norte 27 Norte 0 -- -- 68
2017-08-18 09:00:00 21.5 9 Noroeste 22 Noroeste 0 -- -- 72
2017-08-18 08:00:00 19.8 8 Noroeste 22 Noroeste 0 -- -- 75
2017-08-18 07:00:00 19.7 10 Noroeste 19 Noroeste 0 -- -- 71
2017-08-18 06:00:00 19.2 12 Noroeste 21 Noroeste 0 -- -- 72
2017-08-18 05:00:00 16.9 0 Calma 7 Noroeste 0 -- -- 80
2017-08-18 04:00:00 17.7 3 Sur 6 Sudoeste 0 -- -- 79
2017-08-18 03:00:00 18.5 2 Sudoeste 7 Sudoeste 0 -- -- 75
2017-08-18 02:00:00 19.6 4 Sudoeste 8 Oeste 0 -- -- 72
2017-08-18 01:00:00 21.7 0 Calma 9 Norte 0 -- -- 65
2017-08-18 00:00:00 24.4 5 Norte 14 Noroeste 0 -- -- 55
2017-08-17 23:00:00 25.2 8 Noroeste 16 Noroeste 0 -- -- 51
2017-08-17 22:00:00 26.6 11 Oeste 15 Oeste 0 -- -- 48
2017-08-17 21:00:00 28.9 5 Norte 23 Norte 0 -- -- 44
2017-08-17 20:00:00 32.5 4 Norte 10 Norte 0 -- -- 35
2017-08-17 19:00:00 33.8 3 Norte 8 Este 0 -- -- 28
2017-08-17 18:00:00 33.7 4 Norte 12 Norte 0 -- -- 26
2017-08-17 17:00:00 33.3 6 Nordeste 13 Este 0 -- -- 27
2017-08-17 16:00:00 32.9 6 Este 14 Este 0 -- -- 27
2017-08-17 15:00:00 31.1 5 Nordeste 13 Nordeste 0 -- -- 31
2017-08-17 14:00:00 29.6 5 Este 10 Nordeste 0 -- -- 32
2017-08-17 13:00:00 28.3 5 Sudeste 10 Norte 0 -- -- 36
2017-08-17 12:00:00 25.7 7 Nordeste 16 Noroeste 0 -- -- 39
2017-08-17 11:00:00 23.6 9 Noroeste 19 Norte 0 -- -- 44
2017-08-17 10:00:00 20.9 9 Noroeste 18 Noroeste 0 -- -- 53
2017-08-17 09:00:00 18.1 8 Noroeste 12 Noroeste 0 -- -- 61
2017-08-17 08:00:00 13.3 5 Oeste 14 Sudoeste 0 -- -- 82
2017-08-17 07:00:00 12.4 4 Oeste 6 Sudoeste 0 -- -- 78
2017-08-17 06:00:00 13.6 5 Oeste 9 Oeste 0 -- -- 76
2017-08-17 05:00:00 14.6 5 Norte 10 Norte 0 -- -- 76
2017-08-17 04:00:00 15.5 5 Norte 9 Norte 0 -- -- 75
2017-08-17 03:00:00 16.6 3 Sudeste 14 Noroeste 0 -- -- 67
2017-08-17 02:00:00 17.4 9 Noroeste 15 Noroeste 0 -- -- 63
2017-08-17 01:00:00 18.1 10 Noroeste 15 Oeste 0 -- -- 62
2017-08-17 00:00:00 19 9 Oeste 13 Oeste 0 -- -- 66
2017-08-16 23:00:00 21.1 8 Noroeste 26 Noroeste 0 -- -- 58
2017-08-16 22:00:00 22.5 12 Noroeste 25 Noroeste 0 -- -- 53
2017-08-16 21:00:00 23.9 9 Norte 30 Norte 0 -- -- 53
2017-08-16 20:00:00 26.2 19 Norte 35 Norte 0 -- -- 48
2017-08-16 19:00:00 28.6 19 Norte 35 Norte 0 -- -- 47
2017-08-16 18:00:00 30.5 12 Nordeste 24 Norte 0 -- -- 43
2017-08-16 17:00:00 31.2 8 Norte 28 Noroeste 0 -- -- 43
2017-08-16 16:00:00 30.1 9 Noroeste 21 Noroeste 0 -- -- 43
2017-08-16 15:00:00 29 11 Noroeste 24 Noroeste 0 -- -- 46
2017-08-16 14:00:00 27.2 8 Noroeste 19 Noroeste 0 -- -- 52
2017-08-16 13:00:00 25.9 11 Norte 26 Noroeste 0 -- -- 55
2017-08-16 12:00:00 24.6 15 Norte 26 Noroeste 0 -- -- 61
2017-08-16 11:00:00 23.1 16 Noroeste 28 Noroeste 0 -- -- 67
2017-08-16 10:00:00 21 11 Norte 21 Norte 0 -- -- 76
2017-08-16 09:00:00 19.5 8 Norte 16 Norte 0 -- -- 82
2017-08-16 08:00:00 17.4 6 Noroeste 11 Noroeste 0 -- -- 89
2017-08-16 07:00:00 17.3 6 Noroeste 10 Noroeste 0 -- -- 87
2017-08-16 06:00:00 17.7 6 Noroeste 10 Noroeste 0 -- -- 86
2017-08-16 05:00:00 17.9 6 Noroeste 10 Noroeste 0 -- -- 84
2017-08-16 04:00:00 18.4 6 Noroeste 14 Noroeste 0 -- -- 80
2017-08-16 03:00:00 19.1 9 Noroeste 19 Noroeste 0 -- -- 78
2017-08-16 02:00:00 19.6 9 Noroeste 23 Noroeste 0 -- -- 76
2017-08-16 01:00:00 19.9 10 Noroeste 21 Norte 0 -- -- 75
2017-08-16 00:00:00 20.4 13 Noroeste 27 Noroeste 0 -- -- 73
2017-08-15 23:00:00 21 15 Noroeste 33 Noroeste 0 -- -- 70
2017-08-15 22:00:00 21.5 20 Noroeste 33 Noroeste 0 -- -- 69
2017-08-15 21:00:00 23 18 Noroeste 31 Norte 0 -- -- 64
2017-08-15 20:00:00 25.3 16 Norte 28 Nordeste 0 -- -- 58
2017-08-15 19:00:00 31 7 Norte 19 Norte 0 -- -- 47
2017-08-15 18:00:00 31.5 7 Norte 16 Norte 0 -- -- 38
2017-08-15 17:00:00 31.4 6 Norte 14 Norte 0 -- -- 40
2017-08-15 16:00:00 30.3 8 Nordeste 17 Norte 0 -- -- 44
2017-08-15 15:00:00 29.6 11 Sur 22 Sudeste 0 -- -- 42
2017-08-15 14:00:00 28 10 Este 23 Sudeste 0 -- -- 47
2017-08-15 13:00:00 27.3 13 Sur 24 Sudeste 0 -- -- 48
2017-08-15 12:00:00 26.2 12 Este 26 Este 0 -- -- 56
2017-08-15 11:00:00 25.2 17 Sudeste 31 Sudeste 0 -- -- 62
2017-08-15 10:00:00 23.2 16 Sudeste 26 Este 0 -- -- 69
2017-08-15 09:00:00 20.4 14 Sudeste 19 Sudeste 0 -- -- 76
2017-08-15 08:00:00 17.4 5 Sudeste 8 Sur 0 -- -- 85
2017-08-15 07:00:00 17.7 4 Sur 12 Sudeste 0 -- -- 80
2017-08-15 06:00:00 17.6 7 Sudeste 14 Sudeste 0 -- -- 86
2017-08-15 05:00:00 17.5 5 Sudeste 10 Sur 0 -- -- 88
2017-08-15 04:00:00 18.4 4 Sur 14 Sudeste 0 -- -- 86
2017-08-15 03:00:00 19.3 5 Sudeste 15 Sudeste 0 -- -- 79
2017-08-15 02:00:00 19.2 12 Sur 15 Sur 0 -- -- 87
2017-08-15 01:00:00 20.2 7 Sudeste 13 Este 0 -- -- 82
2017-08-15 00:00:00 21.5 10 Oeste 14 Nordeste 0 -- -- 79
2017-08-14 23:00:00 22.1 4 Norte 20 Nordeste 0 -- -- 73
2017-08-14 22:00:00 22.8 8 Norte 43 Oeste 0 -- -- 73
2017-08-14 21:00:00 25.6 6 Sudeste 41 Nordeste 0 -- -- 60
2017-08-14 20:00:00 31.2 11 Oeste 25 Oeste 0 -- -- 35
2017-08-14 19:00:00 32.6 17 Sudeste 41 Sudeste 0 -- -- 28
2017-08-14 18:00:00 33.4 27 Sudeste 42 Sudeste 0 -- -- 29
2017-08-14 17:00:00 33.9 24 Sudeste 43 Sudeste 0 -- -- 29
2017-08-14 16:00:00 34 24 Sudeste 40 Sudeste 0 -- -- 31
2017-08-14 15:00:00 33.3 22 Sudeste 33 Sudeste 0 -- -- 33
2017-08-14 14:00:00 31.3 21 Sudeste 36 Sudeste 0 -- -- 38
2017-08-14 13:00:00 29.3 23 Sudeste 35 Sudeste 0 -- -- 43
2017-08-14 12:00:00 27.6 20 Sudeste 37 Sudeste 0 -- -- 48
2017-08-14 11:00:00 25.3 19 Sudeste 32 Sudeste 0 -- -- 57
2017-08-14 10:00:00 23.1 20 Sudeste 31 Sudeste 0 -- -- 67
2017-08-14 09:00:00 21 14 Sudeste 22 Sudeste 0 -- -- 76
2017-08-14 08:00:00 18.1 7 Sudeste 12 Sur 0 -- -- 84
2017-08-14 07:00:00 17.3 8 Sur 12 Sudeste 0 -- -- 85
2017-08-14 06:00:00 17 10 Sur 13 Sur 0 -- -- 81
2017-08-14 05:00:00 15.5 4 Sur 8 Sur 0 -- -- 79
2017-08-14 04:00:00 16.4 5 Sudeste 7 Sudeste 0 -- -- 80
2017-08-14 03:00:00 17 4 Sur 5 Sur 0 -- -- 80
2017-08-14 02:00:00 17.8 4 Sudoeste 6 Sur 0 -- -- 77
2017-08-14 01:00:00 19 3 Nordeste 6 Norte 0 -- -- 74
2017-08-14 00:00:00 20.7 3 Norte 10 Sudeste 0 -- -- 66
2017-08-13 23:00:00 21.8 7 Oeste 9 Oeste 0 -- -- 56
2017-08-13 22:00:00 24.7 4 Norte 10 Norte 0 -- -- 53
2017-08-13 21:00:00 29.5 6 Sur 10 Sur 0 -- -- 38
2017-08-13 20:00:00 30.9 5 Este 20 Este 0 -- -- 35
2017-08-13 19:00:00 32.2 5 Sudeste 16 Este 0 -- -- 32
2017-08-13 18:00:00 31.5 6 Nordeste 17 Nordeste 0 -- -- 34
2017-08-13 17:00:00 31.2 10 Este 19 Este 0 -- -- 33
2017-08-13 16:00:00 30.5 11 Este 19 Sudeste 0 -- -- 36
2017-08-13 15:00:00 29 6 Este 12 Este 0 -- -- 39
2017-08-13 14:00:00 26.6 4 Este 14 Este 0 -- -- 42
2017-08-13 13:00:00 25.3 6 Nordeste 12 Nordeste 0 -- -- 46
2017-08-13 12:00:00 23.6 5 Nordeste 14 Norte 0 -- -- 50
2017-08-13 11:00:00 21.6 9 Noroeste 19 Norte 0 -- -- 55
2017-08-13 10:00:00 19.9 11 Noroeste 23 Noroeste 0 -- -- 55
2017-08-13 09:00:00 17.3 11 Noroeste 19 Noroeste 0 -- -- 61
2017-08-13 08:00:00 14.5 6 Noroeste 12 Noroeste 0 -- -- 70
2017-08-13 07:00:00 14.5 8 Noroeste 18 Noroeste 0 -- -- 69
2017-08-13 06:00:00 15 9 Noroeste 19 Noroeste 0 -- -- 67
2017-08-13 05:00:00 14.3 9 Noroeste 13 Noroeste 0 -- -- 72
2017-08-13 04:00:00 15.4 5 Noroeste 14 Noroeste 0 -- -- 68
2017-08-13 03:00:00 16 4 Noroeste 13 Noroeste 0 -- -- 65
2017-08-13 02:00:00 16.9 0 Calma 17 Norte 0 -- -- 68
2017-08-13 01:00:00 18.8 10 Norte 21 Noroeste 0 -- -- 62
2017-08-13 00:00:00 19.9 12 Noroeste 28 Noroeste 0 -- -- 58
2017-08-12 23:00:00 21 14 Noroeste 31 Noroeste 0 -- -- 56
2017-08-12 22:00:00 22.2 13 Noroeste 26 Noroeste 0 -- -- 53
2017-08-12 21:00:00 24.1 12 Noroeste 27 Norte 0 -- -- 44
2017-08-12 20:00:00 26.2 12 Nordeste 32 Nordeste 0 -- -- 39
2017-08-12 19:00:00 28.1 16 Nordeste 31 Nordeste 0 -- -- 34
2017-08-12 18:00:00 29.4 9 Nordeste 20 Norte 0 -- -- 28
2017-08-12 17:00:00 29.6 7 Nordeste 18 Norte 0 -- -- 27
2017-08-12 16:00:00 28.9 6 Norte 16 Norte 0 -- -- 21
2017-08-12 15:00:00 27 8 Norte 19 Norte 0 -- -- 23
2017-08-12 14:00:00 25.7 5 Noroeste 17 Norte 0 -- -- 27
2017-08-12 13:00:00 23.7 6 Nordeste 17 Noroeste 0 -- -- 36
2017-08-12 12:00:00 21.5 6 Norte 18 Noroeste 0 -- -- 46
2017-08-12 11:00:00 19.6 9 Noroeste 18 Noroeste 0 -- -- 50
2017-08-12 10:00:00 16.7 10 Noroeste 19 Norte 0 -- -- 62
2017-08-12 09:00:00 14.8 11 Noroeste 21 Noroeste 0 -- -- 67
2017-08-12 08:00:00 11.5 5 Noroeste 11 Norte 0 -- -- 81
2017-08-12 07:00:00 10.7 4 Nordeste 14 Norte 0 -- -- 80
2017-08-12 06:00:00 11.9 8 Oeste 17 Norte 0 -- -- 75
2017-08-12 05:00:00 12.5 8 Norte 18 Noroeste 0 -- -- 75
2017-08-12 04:00:00 12.3 8 Noroeste 15 Noroeste 0 -- -- 75
2017-08-12 03:00:00 13.3 10 Noroeste 15 Noroeste 0 -- -- 72
2017-08-12 02:00:00 13.7 6 Noroeste 14 Noroeste 0 -- -- 70
2017-08-12 01:00:00 13.9 9 Norte 13 Oeste 0 -- -- 71
2017-08-12 00:00:00 14.7 9 Oeste 14 Noroeste 0 -- -- 65
2017-08-11 23:00:00 16.3 8 Norte 25 Norte 0 -- -- 59
2017-08-11 22:00:00 17.4 14 Norte 24 Norte 0 -- -- 55
2017-08-11 21:00:00 18.9 15 Norte 36 Norte 0 -- -- 49
2017-08-11 20:00:00 20.9 23 Norte 42 Norte 0 -- -- 45
2017-08-11 19:00:00 22.6 23 Norte 40 Norte 0 -- -- 41
2017-08-11 18:00:00 23.8 21 Norte 37 Norte 0 -- -- 38
2017-08-11 17:00:00 24.5 19 Norte 38 Norte 0 -- -- 35
2017-08-11 16:00:00 24.5 21 Norte 35 Norte 0 -- -- 34
2017-08-11 15:00:00 23.5 19 Norte 39 Noroeste 0 -- -- 36
2017-08-11 14:00:00 23 18 Noroeste 39 Noroeste 0 -- -- 37
2017-08-11 13:00:00 21.8 21 Noroeste 44 Oeste 0 -- -- 42
2017-08-11 12:00:00 20.3 20 Norte 36 Noroeste 0 -- -- 48
2017-08-11 11:00:00 19.4 23 Noroeste 37 Noroeste 0 -- -- 51
2017-08-11 10:00:00 18.1 22 Noroeste 36 Noroeste 0 -- -- 56
2017-08-11 09:00:00 15.9 15 Noroeste 26 Noroeste 0 -- -- 66
2017-08-11 08:00:00 13.6 10 Noroeste 18 Noroeste 0 -- -- 73
2017-08-11 07:00:00 12.6 7 Noroeste 12 Noroeste 0 -- -- 77
2017-08-11 06:00:00 12 7 Noroeste 12 Noroeste 0 -- -- 80
2017-08-11 05:00:00 11.4 7 Noroeste 13 Noroeste 0 -- -- 80
2017-08-11 04:00:00 10.8 6 Oeste 9 Oeste 0 -- -- 84
2017-08-11 03:00:00 11.7 4 Sur 12 Noroeste 0 -- -- 80
2017-08-11 02:00:00 12.4 4 Norte 13 Noroeste 0 -- -- 77
2017-08-11 01:00:00 13.5 7 Noroeste 15 Noroeste 0 -- -- 72
2017-08-11 00:00:00 14.5 9 Noroeste 22 Noroeste 0 -- -- 65
2017-08-10 23:00:00 15.5 9 Noroeste 23 Noroeste 0 -- -- 63
2017-08-10 22:00:00 16.4 15 Norte 29 Noroeste 0 -- -- 59
2017-08-10 21:00:00 17.3 14 Norte 41 Norte 0 -- -- 62
2017-08-10 20:00:00 19 23 Norte 51 Norte 0 -- -- 56
2017-08-10 19:00:00 20.4 28 Norte 47 Noroeste 0 -- -- 49
2017-08-10 18:00:00 21.1 31 Noroeste 52 Noroeste 0 -- -- 49
2017-08-10 17:00:00 22.2 26 Norte 44 Noroeste 0 -- -- 45
2017-08-10 16:00:00 22.4 25 Noroeste 48 Noroeste 0 -- -- 47
2017-08-10 15:00:00 21.9 27 Noroeste 43 Norte 0 -- -- 48
2017-08-10 14:00:00 19.6 22 Noroeste 43 Noroeste 0 -- -- 55
2017-08-10 13:00:00 18.9 23 Noroeste 42 Noroeste 0 -- -- 54
2017-08-10 12:00:00 18.8 26 Noroeste 44 Noroeste 0 -- -- 54
2017-08-10 11:00:00 18 21 Noroeste 42 Noroeste 0 -- -- 55
2017-08-10 10:00:00 17.5 16 Noroeste 40 Noroeste 0 -- -- 60
2017-08-10 09:00:00 16.4 18 Noroeste 35 Noroeste 0 -- -- 63
2017-08-10 08:00:00 14.5 13 Noroeste 23 Noroeste 0 -- -- 66
2017-08-10 07:00:00 13.6 14 Noroeste 27 Noroeste 0 -- -- 66
2017-08-10 06:00:00 13.1 9 Noroeste 18 Noroeste 0 -- -- 69
2017-08-10 05:00:00 13.7 13 Noroeste 26 Noroeste 0 -- -- 67
2017-08-10 04:00:00 13.3 9 Noroeste 21 Oeste 0 -- -- 68
2017-08-10 03:00:00 13.1 10 Noroeste 20 Noroeste 0 -- -- 70
2017-08-10 02:00:00 13.5 12 Noroeste 20 Noroeste 0 -- -- 68
2017-08-10 01:00:00 13.4 7 Noroeste 17 Noroeste 0 -- -- 70
2017-08-10 00:00:00 14 7 Noroeste 21 Noroeste 0 -- -- 67
2017-08-09 23:00:00 14.4 11 Noroeste 27 Norte 0 -- -- 65
2017-08-09 22:00:00 15.6 19 Norte 41 Norte 0 -- -- 58
2017-08-09 21:00:00 17.1 23 Norte 44 Noroeste 0 -- -- 50
2017-08-09 20:00:00 18.5 22 Norte 53 Noroeste 0 -- -- 47
2017-08-09 19:00:00 19.9 23 Norte 50 Norte 0 -- -- 43
2017-08-09 18:00:00 21.3 26 Norte 47 Noroeste 0 -- -- 44
2017-08-09 17:00:00 20.2 22 Norte 37 Norte 0 -- -- 44
2017-08-09 16:00:00 18.4 13 Norte 40 Norte 0 -- -- 54
2017-08-09 15:00:00 20.9 22 Noroeste 40 Norte 0 -- -- 46
2017-08-09 14:00:00 20.9 18 Norte 37 Noroeste 0 -- -- 47
2017-08-09 13:00:00 20.1 22 Norte 41 Noroeste 0 -- -- 52
2017-08-09 12:00:00 19.7 23 Norte 36 Noroeste 0 -- -- 52
2017-08-09 11:00:00 18.8 16 Noroeste 29 Noroeste 0 -- -- 56
2017-08-09 10:00:00 18.9 11 Norte 23 Norte 0 -- -- 61
2017-08-09 09:00:00 16.8 10 Norte 18 Norte 0 -- -- 67
2017-08-09 08:00:00 13.1 5 Noroeste 11 Oeste 0 -- -- 82
2017-08-09 07:00:00 12.2 7 Noroeste 12 Noroeste 0 -- -- 84
2017-08-09 06:00:00 12.3 4 Noroeste 13 Noroeste 0 -- -- 84
2017-08-09 05:00:00 11.8 3 Sudoeste 12 Oeste 0 -- -- 81
2017-08-09 04:00:00 12.9 6 Noroeste 13 Oeste 0 -- -- 77
2017-08-09 03:00:00 14.3 12 Oeste 24 Noroeste 0 -- -- 72
2017-08-09 02:00:00 14.2 12 Noroeste 21 Noroeste 0 -- -- 73
2017-08-09 01:00:00 14.9 10 Noroeste 26 Noroeste 0 -- -- 72
2017-08-09 00:00:00 15.6 13 Noroeste 25 Noroeste 0 -- -- 70
2017-08-08 23:00:00 16.1 12 Noroeste 22 Norte 0 -- -- 67
2017-08-08 22:00:00 16.8 11 Norte 31 Norte 0 -- -- 63
2017-08-08 21:00:00 18.4 15 Norte 29 Norte 0 -- -- 58
2017-08-08 20:00:00 20 19 Norte 35 Nordeste 0 -- -- 51
2017-08-08 19:00:00 20.5 25 Norte 45 Norte 0 -- -- 54
2017-08-08 18:00:00 22.3 26 Norte 45 Norte 0 -- -- 49
2017-08-08 17:00:00 24.4 21 Norte 40 Noroeste 0 -- -- 42
2017-08-08 16:00:00 24.2 25 Noroeste 41 Noroeste 0 -- -- 40
2017-08-08 15:00:00 24.5 16 Noroeste 38 Noroeste 0 -- -- 44
2017-08-08 14:00:00 24 21 Noroeste 38 Noroeste 0 -- -- 44
2017-08-08 13:00:00 22.6 24 Noroeste 42 Noroeste 0 -- -- 48
2017-08-08 12:00:00 21.5 23 Noroeste 46 Noroeste 0 -- -- 52
2017-08-08 11:00:00 20.4 23 Noroeste 42 Noroeste 0 -- -- 51
2017-08-08 10:00:00 18.5 20 Noroeste 41 Norte 0 -- -- 54
2017-08-08 09:00:00 17.9 20 Noroeste 36 Noroeste 0 -- -- 58
2017-08-08 08:00:00 17.4 20 Noroeste 32 Noroeste 0 -- -- 65
2017-08-08 07:00:00 17.5 17 Noroeste 34 Noroeste 0 -- -- 70
2017-08-08 06:00:00 17.9 19 Noroeste 37 Noroeste 0 -- -- 71
2017-08-08 05:00:00 18 21 Noroeste 40 Noroeste 0 -- -- 70
2017-08-08 04:00:00 18.6 20 Noroeste 39 Noroeste 0 -- -- 69
2017-08-08 03:00:00 19 26 Noroeste 48 Noroeste 0 -- -- 73
2017-08-08 02:00:00 20.4 18 Noroeste 32 Norte 0 -- -- 70
2017-08-08 01:00:00 20.7 23 Norte 41 Norte 0 -- -- 69
2017-08-08 00:00:00 21.4 21 Noroeste 42 Noroeste 0 -- -- 68
2017-08-07 23:00:00 22 16 Norte 40 Norte 0 -- -- 69
2017-08-07 22:00:00 23.6 23 Noroeste 44 Noroeste 0 -- -- 65
2017-08-07 21:00:00 28.2 10 Este 17 Nordeste 0 -- -- 61
2017-08-07 20:00:00 29.8 11 Este 24 Este 0 -- -- 57
2017-08-07 19:00:00 31.2 13 Este 25 Este 0 -- -- 52
2017-08-07 18:00:00 32.2 14 Sudeste 25 Este 0 -- -- 43
2017-08-07 17:00:00 32.1 10 Sudeste 23 Sudeste 0 -- -- 45
2017-08-07 16:00:00 30.6 10 Sudeste 23 Sudeste 0 -- -- 50
2017-08-07 15:00:00 30.9 16 Sudeste 27 Sudeste 0 -- -- 48
2017-08-07 14:00:00 29.4 15 Sudeste 27 Sudeste 0 -- -- 54
2017-08-07 13:00:00 26.7 10 Sudeste 19 Sudeste 0 -- -- 60
2017-08-07 12:00:00 24 6 Este 15 Nordeste 0 -- -- 61
2017-08-07 11:00:00 21.7 5 Este 10 Nordeste 0 -- -- 64
2017-08-07 10:00:00 19.6 5 Norte 10 Noroeste 0 -- -- 72
2017-08-07 09:00:00 17.1 0 Calma 2 Sur 0 -- -- 83
2017-08-07 08:00:00 16 0 Calma 3 Noroeste 0 -- -- 85
2017-08-07 07:00:00 16.6 0 Calma 10 Oeste 0 -- -- 81
2017-08-07 06:00:00 17.5 8 Noroeste 18 Noroeste 0 -- -- 75
2017-08-07 05:00:00 18.1 6 Noroeste 18 Noroeste 0 -- -- 73
2017-08-07 04:00:00 18.5 11 Noroeste 19 Noroeste 0 -- -- 71
2017-08-07 03:00:00 18.5 11 Noroeste 19 Noroeste 0 -- -- 71
2017-08-07 02:00:00 18.5 9 Noroeste 16 Noroeste 0 -- -- 72
2017-08-07 01:00:00 19.2 7 Noroeste 27 Noroeste 0 -- -- 70
2017-08-07 00:00:00 19.9 13 Noroeste 25 Noroeste 0 -- -- 67
2017-08-06 23:00:00 21 12 Noroeste 28 Noroeste 0 -- -- 63
2017-08-06 22:00:00 21.7 13 Norte 30 Noroeste 0 -- -- 61
2017-08-06 21:00:00 23.2 14 Norte 23 Norte 0 -- -- 56
2017-08-06 20:00:00 25.3 10 Norte 21 Nordeste 0 -- -- 51
2017-08-06 19:00:00 26.5 10 Norte 26 Nordeste 0 -- -- 48
2017-08-06 18:00:00 27.5 14 Noroeste 27 Noroeste 0 -- -- 43
2017-08-06 17:00:00 26.4 16 Norte 28 Norte 0 -- -- 44
2017-08-06 16:00:00 25.6 14 Norte 31 Norte 0 -- -- 46
2017-08-06 15:00:00 25.3 15 Norte 29 Norte 0 -- -- 46
2017-08-06 14:00:00 24.7 17 Noroeste 30 Noroeste 0 -- -- 47
2017-08-06 13:00:00 24.3 19 Noroeste 32 Norte 0 -- -- 47
2017-08-06 12:00:00 22.7 18 Noroeste 36 Noroeste 0 -- -- 54
2017-08-06 11:00:00 21.2 21 Noroeste 35 Noroeste 0 -- -- 59
2017-08-06 10:00:00 19.8 18 Noroeste 35 Noroeste 0 -- -- 65
2017-08-06 09:00:00 18.3 21 Noroeste 36 Noroeste 0 -- -- 69
2017-08-06 08:00:00 16.9 14 Noroeste 27 Noroeste 0 -- -- 76
2017-08-06 07:00:00 16.3 15 Noroeste 29 Noroeste 0 -- -- 78
2017-08-06 06:00:00 16.6 15 Noroeste 27 Noroeste 0 -- -- 79
2017-08-06 05:00:00 17.2 16 Noroeste 33 Norte 0 -- -- 79
2017-08-06 04:00:00 17.5 17 Noroeste 39 Noroeste 0 -- -- 79
2017-08-06 03:00:00 18.1 22 Noroeste 41 Noroeste 0 -- -- 77
2017-08-06 02:00:00 17.7 23 Noroeste 37 Noroeste 0 -- -- 80
2017-08-06 01:00:00 16.9 20 Noroeste 44 Norte 5.6 -- -- 86
2017-08-06 00:00:00 19.3 26 Noroeste 46 Noroeste 0 -- -- 72
2017-08-05 23:00:00 19.4 22 Noroeste 44 Noroeste 0 -- -- 68
2017-08-05 22:00:00 20.9 22 Noroeste 39 Noroeste 0 -- -- 63
2017-08-05 21:00:00 21.4 22 Norte 42 Norte 0 -- -- 63
2017-08-05 20:00:00 23 26 Norte 46 Norte 0 -- -- 59
2017-08-05 19:00:00 24.4 24 Norte 45 Norte 0 -- -- 58
2017-08-05 18:00:00 26.6 27 Norte 46 Norte 0 -- -- 53
2017-08-05 17:00:00 28.4 26 Norte 42 Norte 0 -- -- 49
2017-08-05 16:00:00 29.3 24 Norte 42 Norte 0 -- -- 49
2017-08-05 15:00:00 30.6 23 Noroeste 40 Noroeste 0 -- -- 45
2017-08-05 14:00:00 29.8 24 Noroeste 42 Noroeste 0 -- -- 49
2017-08-05 13:00:00 29.1 23 Noroeste 44 Noroeste 0 -- -- 54
2017-08-05 12:00:00 28.2 23 Noroeste 39 Noroeste 0 -- -- 57
2017-08-05 11:00:00 26.6 21 Noroeste 35 Noroeste 0 -- -- 61
2017-08-05 10:00:00 25.3 18 Noroeste 36 Noroeste 0 -- -- 65
2017-08-05 09:00:00 23.7 18 Noroeste 28 Noroeste 0 -- -- 70
2017-08-05 08:00:00 21.5 11 Noroeste 21 Noroeste 0 -- -- 78
2017-08-05 07:00:00 21.4 12 Noroeste 23 Noroeste 0 -- -- 78
2017-08-05 06:00:00 21.7 12 Noroeste 23 Noroeste 0 -- -- 76
2017-08-05 05:00:00 22 10 Noroeste 18 Noroeste 0 -- -- 73
2017-08-05 04:00:00 22.6 8 Noroeste 16 Noroeste 0 -- -- 70
2017-08-05 03:00:00 23.7 10 Noroeste 21 Noroeste 0 -- -- 66
2017-08-05 02:00:00 24.2 10 Noroeste 19 Noroeste 0 -- -- 64
2017-08-05 01:00:00 24.7 11 Noroeste 24 Noroeste 0 -- -- 62
2017-08-05 00:00:00 25.3 15 Noroeste 28 Noroeste 0 -- -- 60
2017-08-04 23:00:00 26.1 14 Noroeste 28 Noroeste 0 -- -- 57
2017-08-04 22:00:00 27.8 12 Noroeste 24 Noroeste 0 -- -- 54
2017-08-04 21:00:00 29.8 11 Norte 25 Norte 0 -- -- 48
2017-08-04 20:00:00 31.5 13 Norte 29 Nordeste 0 -- -- 45
2017-08-04 19:00:00 32.8 15 Nordeste 28 Nordeste 0 -- -- 41
2017-08-04 18:00:00 33.7 15 Nordeste 28 Nordeste 0 -- -- 39
2017-08-04 17:00:00 34 14 Nordeste 25 Nordeste 0 -- -- 38
2017-08-04 16:00:00 33.7 13 Nordeste 27 Nordeste 0 -- -- 38
2017-08-04 15:00:00 33.6 12 Norte 22 Nordeste 0 -- -- 38
2017-08-04 14:00:00 32.3 12 Nordeste 26 Norte 0 -- -- 44
2017-08-04 13:00:00 31.6 12 Norte 27 Norte 0 -- -- 42
2017-08-04 12:00:00 29.7 17 Noroeste 32 Noroeste 0 -- -- 45
2017-08-04 11:00:00 27.3 15 Noroeste 27 Noroeste 0 -- -- 53
2017-08-04 10:00:00 24.2 8 Noroeste 21 Norte 0 -- -- 66
2017-08-04 09:00:00 22.1 10 Noroeste 21 Norte 0 -- -- 73
2017-08-04 08:00:00 20.5 11 Noroeste 20 Noroeste 0 -- -- 79
2017-08-04 07:00:00 19.9 9 Noroeste 16 Norte 0 -- -- 80
2017-08-04 06:00:00 20.1 8 Noroeste 19 Noroeste 0 -- -- 78
2017-08-04 05:00:00 20.5 10 Noroeste 19 Noroeste 0 -- -- 76
2017-08-04 04:00:00 20.9 10 Norte 18 Norte 0 -- -- 75
2017-08-04 03:00:00 22 10 Noroeste 21 Noroeste 0 -- -- 73
2017-08-04 02:00:00 22.8 12 Noroeste 23 Noroeste 0 -- -- 72
2017-08-04 01:00:00 23.7 10 Noroeste 20 Noroeste 0 -- -- 68
2017-08-04 00:00:00 24.7 11 Noroeste 20 Noroeste 0 -- -- 65
2017-08-03 23:00:00 26.2 13 Norte 35 Norte 0 -- -- 61
2017-08-03 22:00:00 28.1 19 Noroeste 30 Noroeste 0 -- -- 54
2017-08-03 21:00:00 30.5 8 Norte 23 Norte 0 -- -- 45
2017-08-03 20:00:00 34.7 4 Nordeste 11 Nordeste 0 -- -- 32
2017-08-03 19:00:00 35 8 Nordeste 12 Norte 0 -- -- 32
2017-08-03 18:00:00 35.9 5 Nordeste 12 Norte 0 -- -- 23
2017-08-03 17:00:00 36 4 Nordeste 10 Nordeste 0 -- -- 25
2017-08-03 16:00:00 35.1 8 Nordeste 14 Norte 0 -- -- 23
2017-08-03 15:00:00 34.1 6 Nordeste 16 Nordeste 0 -- -- 34
2017-08-03 14:00:00 32.8 7 Norte 19 Norte 0 -- -- 40
2017-08-03 13:00:00 31.1 8 Norte 18 Norte 0 -- -- 47
2017-08-03 12:00:00 29.2 8 Noroeste 17 Norte 0 -- -- 52
2017-08-03 11:00:00 26.8 8 Norte 18 Noroeste 0 -- -- 59
2017-08-03 10:00:00 24.3 9 Norte 22 Noroeste 0 -- -- 66
2017-08-03 09:00:00 22.3 11 Norte 20 Noroeste 0 -- -- 74
2017-08-03 08:00:00 20.7 8 Noroeste 17 Noroeste 0 -- -- 80
2017-08-03 07:00:00 20.2 10 Noroeste 21 Noroeste 0 -- -- 81
2017-08-03 06:00:00 20.7 10 Noroeste 18 Noroeste 0 -- -- 79
2017-08-03 05:00:00 21.5 9 Noroeste 17 Noroeste 0 -- -- 76
2017-08-03 04:00:00 22.4 10 Noroeste 24 Noroeste 0 -- -- 71
2017-08-03 03:00:00 23 11 Noroeste 21 Noroeste 0 -- -- 65
2017-08-03 02:00:00 22.8 3 Norte 12 Oeste 0 -- -- 65
2017-08-03 01:00:00 25.4 6 Sur 17 Sudeste 0 -- -- 52
2017-08-03 00:00:00 28.3 17 Sudeste 29 Sudeste 0 -- -- 42
2017-08-02 23:00:00 28.3 12 Este 32 Sudeste 0 -- -- 41
2017-08-02 22:00:00 30 23 Sudeste 36 Sudeste 0 -- -- 36
2017-08-02 21:00:00 31.5 20 Sudeste 45 Sudeste 0 -- -- 34
2017-08-02 20:00:00 33.6 27 Sudeste 44 Sudeste 0 -- -- 31
2017-08-02 19:00:00 34.1 26 Este 40 Este 0 -- -- 29
2017-08-02 18:00:00 34.5 24 Este 36 Este 0 -- -- 29
2017-08-02 17:00:00 34.9 22 Este 33 Sudeste 0 -- -- 29
2017-08-02 16:00:00 33.7 17 Este 29 Este 0 -- -- 34
2017-08-02 15:00:00 32.6 18 Sudeste 29 Sudeste 0 -- -- 40
2017-08-02 14:00:00 28.4 4 Este 14 Sudeste 0 -- -- 56
2017-08-02 13:00:00 29.1 12 Este 23 Este 0 -- -- 53
2017-08-02 12:00:00 26.3 5 Este 11 Este 0 -- -- 59
2017-08-02 11:00:00 24 6 Nordeste 12 Nordeste 0 -- -- 62
2017-08-02 10:00:00 21.9 7 Norte 13 Norte 0 -- -- 70
2017-08-02 09:00:00 20 6 Noroeste 13 Oeste 0 -- -- 76
2017-08-02 08:00:00 17.5 4 Noroeste 8 Norte 0 -- -- 87
2017-08-02 07:00:00 16.6 4 Noroeste 9 Noroeste 0 -- -- 86
2017-08-02 06:00:00 16.7 3 Noroeste 7 Norte 0 -- -- 84
2017-08-02 05:00:00 17.3 3 Norte 9 Noroeste 0 -- -- 83
2017-08-02 04:00:00 18 5 Oeste 9 Noroeste 0 -- -- 78
2017-08-02 03:00:00 19.1 6 Noroeste 17 Noroeste 0 -- -- 75
2017-08-02 02:00:00 19.9 14 Noroeste 22 Noroeste 0 -- -- 72
2017-08-02 01:00:00 20.2 13 Noroeste 24 Noroeste 0 -- -- 71
2017-08-02 00:00:00 20.8 11 Noroeste 23 Noroeste 0 -- -- 69
2017-08-01 23:00:00 21.7 12 Noroeste 22 Noroeste 0 -- -- 66
2017-08-01 22:00:00 23.2 10 Norte 22 Norte 0 -- -- 62
2017-08-01 21:00:00 25.4 12 Norte 25 Noroeste 0 -- -- 56
2017-08-01 20:00:00 28.6 14 Norte 21 Norte 0 -- -- 48
2017-08-01 19:00:00 30 4 Norte 12 Norte 0 -- -- 42
2017-08-01 18:00:00 29.3 7 Nordeste 14 Nordeste 0 -- -- 46
2017-08-01 17:00:00 28 6 Nordeste 17 Norte 0 -- -- 54
2017-08-01 16:00:00 28.8 3 Nordeste 21 Noroeste 0 -- -- 51
2017-08-01 15:00:00 27.6 8 Nordeste 17 Nordeste 0 -- -- 54
2017-08-01 14:00:00 25.8 9 Norte 19 Norte 0 -- -- 57
2017-08-01 13:00:00 24.8 9 Noroeste 26 Noroeste 0 -- -- 59
2017-08-01 12:00:00 23.1 14 Noroeste 26 Norte 0 -- -- 62
2017-08-01 11:00:00 23.2 14 Noroeste 29 Noroeste 0 -- -- 60
2017-08-01 10:00:00 21.4 17 Noroeste 30 Noroeste 0 -- -- 65
2017-08-01 09:00:00 19.6 17 Noroeste 28 Noroeste 0 -- -- 71
2017-08-01 08:00:00 18 10 Noroeste 19 Noroeste 0 -- -- 77
2017-08-01 07:00:00 18 12 Noroeste 24 Noroeste 0 -- -- 76
2017-08-01 06:00:00 18.4 11 Noroeste 25 Noroeste 0 -- -- 75
2017-08-01 05:00:00 18.8 14 Noroeste 26 Noroeste 0 -- -- 74
2017-08-01 04:00:00 18.8 13 Noroeste 26 Noroeste 0 -- -- 75
2017-08-01 03:00:00 19.3 14 Noroeste 28 Noroeste 0 -- -- 73
2017-08-01 02:00:00 19.6 16 Noroeste 32 Noroeste 0 -- -- 72
2017-08-01 01:00:00 19.9 16 Noroeste 32 Noroeste 0 -- -- 71
2017-08-01 00:00:00 20.3 17 Norte 31 Norte 0 -- -- 71
2017-07-31 23:00:00 20.8 14 Norte 35 Noroeste 0 -- -- 71
2017-07-31 22:00:00 21.7 21 Noroeste 45 Noroeste 0 -- -- 69
2017-07-31 21:00:00 23.4 24 Norte 41 Noroeste 0 -- -- 63
2017-07-31 20:00:00 27.6 23 Norte 37 Norte 0 -- -- 53
2017-07-31 19:00:00 31.9 14 Noroeste 24 Noroeste 0 -- -- 41
2017-07-31 18:00:00 32.6 15 Noroeste 22 Noroeste 0 -- -- 41
2017-07-31 17:00:00 33.6 10 Sudoeste 19 Sudeste 0 -- -- 37
2017-07-31 16:00:00 31.9 8 Sur 19 Sur 0 -- -- 41
2017-07-31 15:00:00 30.5 7 Sur 25 Sudeste 0 -- -- 44
2017-07-31 14:00:00 29 12 Sudeste 23 Este 0 -- -- 51
2017-07-31 13:00:00 26.5 10 Sudeste 20 Este 0 -- -- 56
2017-07-31 12:00:00 24.5 3 Nordeste 15 Norte 0 -- -- 58
2017-07-31 11:00:00 22 9 Norte 19 Norte 0 -- -- 64
2017-07-31 10:00:00 20 9 Norte 14 Norte 0 -- -- 71
2017-07-31 09:00:00 19.4 6 Noroeste 15 Noroeste 0 -- -- 71
2017-07-31 08:00:00 17.6 6 Noroeste 12 Noroeste 0 -- -- 79
2017-07-31 07:00:00 17.2 7 Noroeste 14 Noroeste 0 -- -- 78
2017-07-31 06:00:00 17.5 8 Noroeste 18 Oeste 0 -- -- 76
2017-07-31 05:00:00 18 8 Noroeste 22 Noroeste 0 -- -- 75
2017-07-31 04:00:00 18.6 14 Noroeste 30 Noroeste 0 -- -- 73
2017-07-31 03:00:00 18.9 18 Noroeste 31 Noroeste 0 -- -- 72
2017-07-31 02:00:00 19.2 14 Noroeste 31 Noroeste 0 -- -- 73
2017-07-31 01:00:00 19.7 20 Noroeste 33 Noroeste 0 -- -- 71
2017-07-31 00:00:00 20.4 21 Noroeste 35 Noroeste 0 -- -- 69
2017-07-30 23:00:00 21.4 16 Norte 39 Norte 0 -- -- 70
2017-07-30 22:00:00 22.6 22 Noroeste 40 Norte 0 -- -- 67
2017-07-30 21:00:00 24.6 23 Noroeste 42 Noroeste 0 -- -- 62
2017-07-30 20:00:00 27.5 23 Norte 39 Norte 0 -- -- 54
2017-07-30 19:00:00 33.8 4 Nordeste 9 Norte 0 -- -- 37
2017-07-30 18:00:00 33.6 5 Nordeste 13 Nordeste 0 -- -- 40
2017-07-30 17:00:00 34.8 9 Norte 15 Norte 0 -- -- 35
2017-07-30 16:00:00 33.9 6 Norte 17 Norte 0 -- -- 38
2017-07-30 15:00:00 32.5 7 Nordeste 14 Norte 0 -- -- 40
2017-07-30 14:00:00 30.9 3 Nordeste 12 Este 0 -- -- 46
2017-07-30 13:00:00 29.5 5 Nordeste 14 Noroeste 0 -- -- 48
2017-07-30 12:00:00 28.1 9 Norte 19 Norte 0 -- -- 50
2017-07-30 11:00:00 26.1 10 Norte 26 Noroeste 0 -- -- 54
2017-07-30 10:00:00 24.4 15 Norte 23 Norte 0 -- -- 56
2017-07-30 09:00:00 23 13 Noroeste 23 Noroeste 0 -- -- 60
2017-07-30 08:00:00 21.5 7 Noroeste 17 Noroeste 0 -- -- 62
2017-07-30 07:00:00 21.3 13 Noroeste 24 Noroeste 0 -- -- 65
2017-07-30 06:00:00 21.5 12 Noroeste 22 Noroeste 0 -- -- 68
2017-07-30 05:00:00 21.9 11 Noroeste 19 Noroeste 0 -- -- 68
2017-07-30 04:00:00 21.6 5 Noroeste 9 Noroeste 0 -- -- 73
2017-07-30 03:00:00 22.7 4 Nordeste 15 Noroeste 0 -- -- 70
2017-07-30 02:00:00 22.7 0 Calma 8 Oeste 0 -- -- 68
2017-07-30 01:00:00 23.9 3 Noroeste 14 Oeste 0 -- -- 62
2017-07-30 00:00:00 23.6 6 Nordeste 11 Este 0 -- -- 64
2017-07-29 23:00:00 25.7 7 Sudoeste 9 Sudoeste 0 -- -- 56
2017-07-29 22:00:00 29 7 Sudoeste 9 Sudoeste 0 -- -- 52
2017-07-29 21:00:00 32.9 0 Calma 7 Noroeste 0 -- -- 43
2017-07-29 20:00:00 34.4 4 Norte 12 Norte 0 -- -- 33
2017-07-29 19:00:00 35 7 Norte 14 Norte 0 -- -- 29
2017-07-29 18:00:00 35.3 6 Norte 13 Nordeste 0 -- -- 32
2017-07-29 17:00:00 35.3 5 Nordeste 13 Este 0 -- -- 33
2017-07-29 16:00:00 34.4 4 Norte 15 Este 0 -- -- 34
2017-07-29 15:00:00 33.4 5 Sudeste 19 Este 0 -- -- 37
2017-07-29 14:00:00 32.3 12 Sudeste 21 Sudeste 0 -- -- 42
2017-07-29 13:00:00 31.1 10 Sudeste 20 Sudeste 0 -- -- 45
2017-07-29 12:00:00 27.8 3 Norte 9 Este 0 -- -- 40
2017-07-29 11:00:00 25.7 3 Nordeste 10 Este 0 -- -- 45
2017-07-29 10:00:00 23.6 3 Nordeste 12 Noroeste 0 -- -- 52
2017-07-29 09:00:00 21.9 9 Noroeste 15 Noroeste 0 -- -- 53
2017-07-29 08:00:00 16.5 5 Oeste 6 Oeste 0 -- -- 69
2017-07-29 07:00:00 15.2 5 Sudoeste 10 Oeste 0 -- -- 68
2017-07-29 06:00:00 15.7 5 Sudoeste 8 Oeste 0 -- -- 66
2017-07-29 05:00:00 17.3 4 Nordeste 9 Noroeste 0 -- -- 64
2017-07-29 04:00:00 18.4 5 Nordeste 13 Noroeste 0 -- -- 55
2017-07-29 03:00:00 20.2 10 Noroeste 17 Noroeste 0 -- -- 42
2017-07-29 02:00:00 21.5 11 Oeste 22 Noroeste 0 -- -- 37
2017-07-29 01:00:00 22.9 11 Noroeste 25 Noroeste 0 -- -- 34
2017-07-29 00:00:00 24.1 15 Noroeste 27 Norte 0 -- -- 36
2017-07-28 23:00:00 25.1 14 Noroeste 26 Noroeste 0 -- -- 37
2017-07-28 22:00:00 26.6 13 Noroeste 23 Noroeste 0 -- -- 32
2017-07-28 21:00:00 28.4 10 Norte 31 Norte 0 -- -- 34
2017-07-28 20:00:00 31.1 16 Nordeste 27 Norte 0 -- -- 45
2017-07-28 19:00:00 33 9 Nordeste 15 Nordeste 0 -- -- 36
2017-07-28 18:00:00 33.4 4 Nordeste 15 Este 0 -- -- 36
2017-07-28 17:00:00 33.3 6 Este 15 Sudeste 0 -- -- 37
2017-07-28 16:00:00 32.4 6 Norte 15 Nordeste 0 -- -- 44
2017-07-28 15:00:00 31.3 9 Nordeste 18 Norte 0 -- -- 45
2017-07-28 14:00:00 30 8 Norte 21 Noroeste 0 -- -- 47
2017-07-28 13:00:00 28.5 9 Norte 20 Noroeste 0 -- -- 51
2017-07-28 12:00:00 27 11 Norte 21 Noroeste 0 -- -- 58
2017-07-28 11:00:00 25.2 14 Noroeste 27 Noroeste 0 -- -- 61
2017-07-28 10:00:00 23.5 10 Norte 20 Noroeste 0 -- -- 68
2017-07-28 09:00:00 22.2 13 Noroeste 22 Noroeste 0 -- -- 71
2017-07-28 08:00:00 19.5 10 Noroeste 20 Noroeste 0 -- -- 82
2017-07-28 07:00:00 18.1 8 Noroeste 16 Noroeste 0 -- -- 87
2017-07-28 06:00:00 17.6 5 Norte 14 Noroeste 0 -- -- 87
2017-07-28 05:00:00 19.6 11 Noroeste 19 Noroeste 0 -- -- 77
2017-07-28 04:00:00 20 13 Noroeste 24 Noroeste 0 -- -- 76
2017-07-28 03:00:00 20.4 15 Noroeste 27 Noroeste 0 -- -- 74
2017-07-28 02:00:00 21 14 Noroeste 31 Noroeste 0 -- -- 71
2017-07-28 01:00:00 21.5 17 Noroeste 30 Noroeste 0 -- -- 69
2017-07-28 00:00:00 22.2 16 Noroeste 31 Noroeste 0 -- -- 66
2017-07-27 23:00:00 23.2 16 Noroeste 32 Norte 0 -- -- 62
2017-07-27 22:00:00 25 14 Noroeste 28 Norte 0 -- -- 55
2017-07-27 21:00:00 28.1 16 Noroeste 28 Norte 0 -- -- 44
2017-07-27 20:00:00 30.4 10 Norte 25 Nordeste 0 -- -- 38
2017-07-27 19:00:00 31.7 15 Norte 29 Norte 0 -- -- 37
2017-07-27 18:00:00 33.2 10 Nordeste 21 Nordeste 0 -- -- 29
2017-07-27 17:00:00 33.5 6 Nordeste 19 Nordeste 0 -- -- 29
2017-07-27 16:00:00 32.5 5 Norte 15 Nordeste 0 -- -- 28
2017-07-27 15:00:00 31.8 4 Nordeste 18 Este 0 -- -- 28
2017-07-27 14:00:00 30.4 7 Este 15 Nordeste 0 -- -- 31
2017-07-27 13:00:00 29 6 Noroeste 18 Norte 0 -- -- 32
2017-07-27 12:00:00 27.1 8 Norte 16 Noroeste 0 -- -- 41
2017-07-27 11:00:00 24.5 9 Norte 17 Noroeste 0 -- -- 49
2017-07-27 10:00:00 22.4 10 Noroeste 15 Norte 0 -- -- 54
2017-07-27 09:00:00 19.5 6 Norte 9 Norte 0 -- -- 66
2017-07-27 08:00:00 14.6 3 Sudoeste 5 Sudoeste 0 -- -- 90
2017-07-27 07:00:00 12.6 0 Calma 8 Oeste 0 -- -- 90
2017-07-27 06:00:00 13.4 0 Calma 7 Sudoeste 0 -- -- 89
2017-07-27 05:00:00 14.2 0 Calma 5 Sudoeste 0 -- -- 87
2017-07-27 04:00:00 14.9 5 Sudoeste 7 Sudoeste 0 -- -- 82
2017-07-27 03:00:00 16.6 4 Sudoeste 6 Sudoeste 0 -- -- 77
2017-07-27 02:00:00 17.9 6 Oeste 9 Noroeste 0 -- -- 77
2017-07-27 01:00:00 18.8 6 Noroeste 11 Noroeste 0 -- -- 74
2017-07-27 00:00:00 18.5 9 Sudoeste 11 Sudoeste 0 -- -- 72
2017-07-26 23:00:00 20.5 2 Norte 8 Nordeste 0 -- -- 65
2017-07-26 22:00:00 22.9 6 Norte 15 Norte 0 -- -- 60
2017-07-26 21:00:00 25 11 Norte 23 Nordeste 0 -- -- 54
2017-07-26 20:00:00 27 13 Nordeste 32 Nordeste 0 -- -- 46
2017-07-26 19:00:00 27.4 15 Norte 36 Nordeste 0 -- -- 46
2017-07-26 18:00:00 29.2 16 Norte 32 Norte 0 -- -- 43
2017-07-26 17:00:00 29.7 17 Norte 29 Noroeste 0 -- -- 42
2017-07-26 16:00:00 29.8 13 Noroeste 32 Oeste 0 -- -- 40
2017-07-26 15:00:00 28.7 17 Noroeste 36 Noroeste 0 -- -- 40
2017-07-26 14:00:00 26.7 17 Norte 32 Norte 0 -- -- 44
2017-07-26 13:00:00 25.6 14 Noroeste 30 Noroeste 0 -- -- 45
2017-07-26 12:00:00 23 17 Noroeste 33 Norte 0 -- -- 49
2017-07-26 11:00:00 20.6 19 Noroeste 29 Noroeste 0 -- -- 56
2017-07-26 10:00:00 19.1 15 Noroeste 26 Norte 0 -- -- 63
2017-07-26 09:00:00 17.9 11 Noroeste 23 Noroeste 0 -- -- 68
2017-07-26 08:00:00 15.3 12 Noroeste 24 Noroeste 0 -- -- 75
2017-07-26 07:00:00 14.5 13 Noroeste 22 Noroeste 0 -- -- 76
2017-07-26 06:00:00 14.6 10 Noroeste 21 Oeste 0 -- -- 74
2017-07-26 05:00:00 14.8 12 Oeste 27 Noroeste 0 -- -- 75
2017-07-26 04:00:00 15.3 15 Noroeste 28 Noroeste 0 -- -- 71
2017-07-26 03:00:00 15.4 15 Noroeste 24 Noroeste 0 -- -- 71
2017-07-26 02:00:00 16 13 Noroeste 28 Noroeste 0 -- -- 69
2017-07-26 01:00:00 16.1 11 Noroeste 22 Noroeste 0 -- -- 70
2017-07-26 00:00:00 16.7 11 Noroeste 21 Noroeste 0 -- -- 66
2017-07-25 23:00:00 17.6 19 Norte 34 Noroeste 0 -- -- 62
2017-07-25 22:00:00 18.3 14 Norte 35 Norte 0 -- -- 61
2017-07-25 21:00:00 19.8 19 Norte 41 Norte 0 -- -- 58
2017-07-25 20:00:00 20.9 22 Norte 41 Noroeste 0 -- -- 51
2017-07-25 19:00:00 21.7 23 Norte 46 Noroeste 0 -- -- 50
2017-07-25 18:00:00 22.6 26 Norte 43 Norte 0 -- -- 49
2017-07-25 17:00:00 22.6 26 Noroeste 46 Noroeste 0 -- -- 49
2017-07-25 16:00:00 21.9 27 Noroeste 48 Noroeste 0 -- -- 52
2017-07-25 15:00:00 23.3 28 Noroeste 48 Noroeste 0 -- -- 49
2017-07-25 14:00:00 22 25 Noroeste 47 Noroeste 0 -- -- 53
2017-07-25 13:00:00 20.7 24 Noroeste 43 Noroeste 0 -- -- 54
2017-07-25 12:00:00 21.3 23 Noroeste 43 Noroeste 0 -- -- 55
2017-07-25 11:00:00 20.2 24 Noroeste 44 Noroeste 0 -- -- 54
2017-07-25 10:00:00 20.3 28 Noroeste 42 Noroeste 0 -- -- 53
2017-07-25 09:00:00 18.6 21 Noroeste 42 Noroeste 0 -- -- 59
2017-07-25 08:00:00 17.1 20 Noroeste 36 Oeste 0 -- -- 68
2017-07-25 07:00:00 17 18 Noroeste 35 Noroeste 0 -- -- 69
2017-07-25 06:00:00 17.1 18 Noroeste 33 Noroeste 0 -- -- 71
2017-07-25 05:00:00 17.7 17 Noroeste 29 Noroeste 0 -- -- 67
2017-07-25 04:00:00 17.7 15 Noroeste 31 Noroeste 0 -- -- 69
2017-07-25 03:00:00 17.6 19 Noroeste 31 Noroeste 0 -- -- 72
2017-07-25 02:00:00 17.2 13 Noroeste 23 Noroeste 0 -- -- 72
2017-07-25 01:00:00 17.3 12 Noroeste 22 Noroeste 0 -- -- 72
2017-07-25 00:00:00 18.5 12 Noroeste 27 Norte 0 -- -- 69
2017-07-24 23:00:00 19.3 15 Norte 30 Noroeste 0 -- -- 67
2017-07-24 22:00:00 20 17 Noroeste 33 Noroeste 0 -- -- 64
2017-07-24 21:00:00 21.2 19 Noroeste 39 Noroeste 0 -- -- 58
2017-07-24 20:00:00 22.9 26 Noroeste 44 Noroeste 0 -- -- 52
2017-07-24 19:00:00 24.3 27 Norte 42 Norte 0 -- -- 50
2017-07-24 18:00:00 25.6 27 Noroeste 47 Noroeste 0 -- -- 44
2017-07-24 17:00:00 26.4 26 Norte 45 Noroeste 0 -- -- 44
2017-07-24 16:00:00 25.6 24 Norte 43 Noroeste 0 -- -- 45
2017-07-24 15:00:00 25.6 23 Norte 40 Noroeste 0 -- -- 49
2017-07-24 14:00:00 26.5 19 Noroeste 45 Norte 0 -- -- 44
2017-07-24 13:00:00 25.6 26 Noroeste 44 Norte 0 -- -- 48
2017-07-24 12:00:00 25 23 Noroeste 44 Noroeste 0 -- -- 51
2017-07-24 11:00:00 23.8 25 Noroeste 43 Noroeste 0 -- -- 58
2017-07-24 10:00:00 22.7 19 Noroeste 32 Noroeste 0 -- -- 65
2017-07-24 09:00:00 21.3 15 Norte 27 Noroeste 0 -- -- 70
2017-07-24 08:00:00 20.7 14 Noroeste 23 Noroeste 0 -- -- 69
2017-07-24 07:00:00 19.1 7 Norte 14 Noroeste 0 -- -- 74
2017-07-24 06:00:00 18.6 8 Noroeste 13 Noroeste 0 -- -- 75
2017-07-24 05:00:00 17.9 0 Calma 5 Norte 0 -- -- 81
2017-07-24 04:00:00 17.4 0 Calma 5 Este 0 -- -- 81
2017-07-24 03:00:00 17.4 2 Sur 7 Sudoeste 0 -- -- 82
2017-07-24 02:00:00 16 3 Nordeste 10 Nordeste 0 -- -- 85
2017-07-24 01:00:00 17 3 Sudoeste 8 Noroeste 0 -- -- 74
2017-07-24 00:00:00 18.5 6 Norte 17 Norte 0 -- -- 71
2017-07-23 23:00:00 19.5 9 Norte 21 Norte 0 -- -- 65
2017-07-23 22:00:00 21 10 Norte 26 Norte 0 -- -- 57
2017-07-23 21:00:00 22.8 15 Norte 39 Norte 0 -- -- 54
2017-07-23 20:00:00 25.7 21 Norte 32 Norte 0 -- -- 47
2017-07-23 19:00:00 27.7 17 Norte 30 Norte 0 -- -- 41
2017-07-23 18:00:00 28.9 11 Norte 24 Nordeste 0 -- -- 39
2017-07-23 17:00:00 28.7 12 Nordeste 26 Nordeste 0 -- -- 40
2017-07-23 16:00:00 29.6 15 Noroeste 27 Noroeste 0 -- -- 36
2017-07-23 15:00:00 28 11 Noroeste 29 Noroeste 0 -- -- 43
2017-07-23 14:00:00 26.7 13 Noroeste 31 Norte 0 -- -- 43
2017-07-23 13:00:00 25.4 15 Noroeste 27 Noroeste 0 -- -- 48
2017-07-23 12:00:00 23.6 14 Noroeste 30 Noroeste 0 -- -- 51
2017-07-23 11:00:00 22.2 15 Noroeste 32 Noroeste 0 -- -- 55
2017-07-23 10:00:00 20.5 15 Noroeste 28 Noroeste 0 -- -- 62
2017-07-23 09:00:00 19 13 Noroeste 22 Noroeste 0 -- -- 68
2017-07-23 08:00:00 17 10 Noroeste 18 Norte 0 -- -- 76
2017-07-23 07:00:00 15.5 7 Noroeste 18 Norte 0 -- -- 81
2017-07-23 06:00:00 16.1 8 Norte 21 Noroeste 0 -- -- 79
2017-07-23 05:00:00 17.3 13 Noroeste 22 Noroeste 0 -- -- 73
2017-07-23 04:00:00 17.6 13 Noroeste 26 Norte 0 -- -- 74
2017-07-23 03:00:00 17.7 13 Noroeste 24 Noroeste 0 -- -- 74
2017-07-23 02:00:00 17.8 12 Noroeste 27 Noroeste 0 -- -- 76
2017-07-23 01:00:00 18.2 13 Noroeste 31 Noroeste 0 -- -- 74
2017-07-23 00:00:00 18.8 16 Noroeste 30 Norte 0 -- -- 72